sensor_id;sensor_type;location;lat;lon;timestamp;temperature;humidity
41668;DHT22;27356;50.920;5.350;2023-02-03T00:35:00;9.80;99.90
41668;DHT22;27356;50.920;5.350;2023-02-03T00:44:13;9.80;99.90
41668;DHT22;27356;50.920;5.350;2023-02-03T00:46:57;9.80;99.90
41668;DHT22;27356;50.920;5.350;2023-02-03T00:58:47;9.90;99.90
41668;DHT22;27356;50.920;5.350;2023-02-03T01:01:16;9.90;99.90
41668;DHT22;27356;50.920;5.350;2023-02-03T01:03:43;9.80;99.90
41668;DHT22;27356;50.920;5.350;2023-02-03T01:06:18;9.80;99.90
41668;DHT22;27356;50.920;5.350;2023-02-03T01:08:45;9.80;99.90
41668;DHT22;27356;50.920;5.350;2023-02-03T01:11:26;9.80;99.90
41668;DHT22;27356;50.920;5.350;2023-02-03T01:13:58;9.80;99.90
41668;DHT22;27356;50.920;5.350;2023-02-03T01:16:30;9.70;99.90
41668;DHT22;27356;50.920;5.350;2023-02-03T01:21:45;9.70;99.90
41668;DHT22;27356;50.920;5.350;2023-02-03T01:24:33;9.60;99.90
41668;DHT22;27356;50.920;5.350;2023-02-03T01:29:37;9.60;99.90
41668;DHT22;27356;50.920;5.350;2023-02-03T01:32:10;9.60;99.90
41668;DHT22;27356;50.920;5.350;2023-02-03T01:37:19;9.70;99.90
41668;DHT22;27356;50.920;5.350;2023-02-03T01:39:52;9.70;99.90
41668;DHT22;27356;50.920;5.350;2023-02-03T01:42:32;9.70;99.90
41668;DHT22;27356;50.920;5.350;2023-02-03T01:45:07;9.70;99.90
41668;DHT22;27356;50.920;5.350;2023-02-03T01:47:51;9.60;99.90
41668;DHT22;27356;50.920;5.350;2023-02-03T01:50:34;9.50;99.90
41668;DHT22;27356;50.920;5.350;2023-02-03T01:53:40;9.70;99.90
41668;DHT22;27356;50.920;5.350;2023-02-03T01:56:08;9.70;99.90
41668;DHT22;27356;50.920;5.350;2023-02-03T01:58:45;9.70;99.90
41668;DHT22;27356;50.920;5.350;2023-02-03T02:01:38;9.80;99.90
41668;DHT22;27356;50.920;5.350;2023-02-03T02:04:59;9.70;99.90
41668;DHT22;27356;50.920;5.350;2023-02-03T02:07:33;9.80;99.90
41668;DHT22;27356;50.920;5.350;2023-02-03T02:10:04;9.70;99.90
41668;DHT22;27356;50.920;5.350;2023-02-03T02:12:32;9.70;99.90
41668;DHT22;27356;50.920;5.350;2023-02-03T02:36:36;9.80;99.90
41668;DHT22;27356;50.920;5.350;2023-02-03T02:45:26;9.80;99.90
41668;DHT22;27356;50.920;5.350;2023-02-03T02:48:35;9.70;99.90
41668;DHT22;27356;50.920;5.350;2023-02-03T02:51:08;9.70;99.90
41668;DHT22;27356;50.920;5.350;2023-02-03T02:54:05;9.70;99.90
41668;DHT22;27356;50.920;5.350;2023-02-03T02:56:57;9.80;99.90
41668;DHT22;27356;50.920;5.350;2023-02-03T02:59:46;9.90;99.90
41668;DHT22;27356;50.920;5.350;2023-02-03T03:02:13;9.70;99.90
41668;DHT22;27356;50.920;5.350;2023-02-03T03:04:49;9.80;99.90
41668;DHT22;27356;50.920;5.350;2023-02-03T03:07:23;9.80;99.90
41668;DHT22;27356;50.920;5.350;2023-02-03T03:15:10;9.80;99.90
41668;DHT22;27356;50.920;5.350;2023-02-03T03:17:49;9.90;99.90
41668;DHT22;27356;50.920;5.350;2023-02-03T03:23:22;10.00;99.90
41668;DHT22;27356;50.920;5.350;2023-02-03T03:26:02;9.80;99.90
41668;DHT22;27356;50.920;5.350;2023-02-03T03:28:51;9.90;99.90
41668;DHT22;27356;50.920;5.350;2023-02-03T03:31:20;9.90;99.90
41668;DHT22;27356;50.920;5.350;2023-02-03T04:04:51;9.80;99.90
41668;DHT22;27356;50.920;5.350;2023-02-03T04:13:14;9.90;99.90
41668;DHT22;27356;50.920;5.350;2023-02-03T04:16:07;9.80;99.90
41668;DHT22;27356;50.920;5.350;2023-02-03T04:19:06;9.60;99.90
41668;DHT22;27356;50.920;5.350;2023-02-03T04:21:34;9.70;99.90
41668;DHT22;27356;50.920;5.350;2023-02-03T04:24:00;9.60;99.90
41668;DHT22;27356;50.920;5.350;2023-02-03T04:26:27;9.60;99.90
41668;DHT22;27356;50.920;5.350;2023-02-03T04:31:29;9.70;99.90
41668;DHT22;27356;50.920;5.350;2023-02-03T04:33:57;9.70;99.90
41668;DHT22;27356;50.920;5.350;2023-02-03T04:36:23;9.80;99.90
41668;DHT22;27356;50.920;5.350;2023-02-03T04:38:52;9.80;99.90
41668;DHT22;27356;50.920;5.350;2023-02-03T04:41:18;9.70;99.90
41668;DHT22;27356;50.920;5.350;2023-02-03T04:43:51;9.80;99.90
41668;DHT22;27356;50.920;5.350;2023-02-03T04:46:27;9.80;99.90
41668;DHT22;27356;50.920;5.350;2023-02-03T04:49:02;9.80;99.90
41668;DHT22;27356;50.920;5.350;2023-02-03T04:59:26;9.80;99.90
41668;DHT22;27356;50.920;5.350;2023-02-03T05:02:01;9.90;99.90
41668;DHT22;27356;50.920;5.350;2023-02-03T05:04:30;9.80;99.90
41668;DHT22;27356;50.920;5.350;2023-02-03T05:07:08;9.80;99.90
41668;DHT22;27356;50.920;5.350;2023-02-03T05:09:40;9.70;99.90
41668;DHT22;27356;50.920;5.350;2023-02-03T05:12:14;9.70;99.90
41668;DHT22;27356;50.920;5.350;2023-02-03T05:14:42;9.80;99.90
41668;DHT22;27356;50.920;5.350;2023-02-03T05:23:13;9.80;99.90
41668;DHT22;27356;50.920;5.350;2023-02-03T05:31:37;9.80;99.90
41668;DHT22;27356;50.920;5.350;2023-02-03T05:37:17;9.70;99.90
41668;DHT22;27356;50.920;5.350;2023-02-03T05:40:03;9.60;99.90
41668;DHT22;27356;50.920;5.350;2023-02-03T05:43:04;9.70;99.90
41668;DHT22;27356;50.920;5.350;2023-02-03T05:45:47;9.70;99.90
41668;DHT22;27356;50.920;5.350;2023-02-03T05:48:16;9.80;99.90
41668;DHT22;27356;50.920;5.350;2023-02-03T05:56:52;9.80;99.90
41668;DHT22;27356;50.920;5.350;2023-02-03T05:59:22;9.70;99.90
41668;DHT22;27356;50.920;5.350;2023-02-03T06:01:57;9.60;99.90
41668;DHT22;27356;50.920;5.350;2023-02-03T06:04:24;9.60;99.90
41668;DHT22;27356;50.920;5.350;2023-02-03T06:06:52;9.70;99.90
41668;DHT22;27356;50.920;5.350;2023-02-03T06:09:27;9.80;99.90
41668;DHT22;27356;50.920;5.350;2023-02-03T06:30:20;9.70;99.90
41668;DHT22;27356;50.920;5.350;2023-02-03T06:51:46;9.70;99.90
41668;DHT22;27356;50.920;5.350;2023-02-03T06:54:16;9.70;99.90
41668;DHT22;27356;50.920;5.350;2023-02-03T06:56:42;9.70;99.90
41668;DHT22;27356;50.920;5.350;2023-02-03T06:59:08;9.80;99.90
41668;DHT22;27356;50.920;5.350;2023-02-03T07:01:35;9.80;99.90
41668;DHT22;27356;50.920;5.350;2023-02-03T07:04:01;9.70;99.90
41668;DHT22;27356;50.920;5.350;2023-02-03T07:06:28;9.60;99.90
41668;DHT22;27356;50.920;5.350;2023-02-03T07:08:57;9.70;99.90
41668;DHT22;27356;50.920;5.350;2023-02-03T07:11:24;9.70;99.90
41668;DHT22;27356;50.920;5.350;2023-02-03T07:13:50;9.80;99.90
41668;DHT22;27356;50.920;5.350;2023-02-03T07:16:16;9.80;99.90
41668;DHT22;27356;50.920;5.350;2023-02-03T07:18:42;9.70;99.90
41668;DHT22;27356;50.920;5.350;2023-02-03T07:21:08;9.70;99.90
41668;DHT22;27356;50.920;5.350;2023-02-03T07:23:33;9.70;99.90
41668;DHT22;27356;50.920;5.350;2023-02-03T07:26:01;9.70;99.90
41668;DHT22;27356;50.920;5.350;2023-02-03T07:28:27;9.80;99.90
41668;DHT22;27356;50.920;5.350;2023-02-03T07:30:53;9.70;99.90
41668;DHT22;27356;50.920;5.350;2023-02-03T07:33:19;9.70;99.90
41668;DHT22;27356;50.920;5.350;2023-02-03T07:35:54;9.70;99.90
41668;DHT22;27356;50.920;5.350;2023-02-03T07:38:21;9.80;99.90
41668;DHT22;27356;50.920;5.350;2023-02-03T07:40:47;9.80;99.90
41668;DHT22;27356;50.920;5.350;2023-02-03T07:43:13;9.90;99.90
41668;DHT22;27356;50.920;5.350;2023-02-03T07:45:39;9.90;99.90
41668;DHT22;27356;50.920;5.350;2023-02-03T07:48:05;9.90;99.90
41668;DHT22;27356;50.920;5.350;2023-02-03T07:50:31;9.80;99.90
41668;DHT22;27356;50.920;5.350;2023-02-03T07:53:00;9.90;99.90
41668;DHT22;27356;50.920;5.350;2023-02-03T07:55:26;9.90;99.90
41668;DHT22;27356;50.920;5.350;2023-02-03T07:57:53;10.00;99.90
41668;DHT22;27356;50.920;5.350;2023-02-03T08:00:19;10.00;99.90
41668;DHT22;27356;50.920;5.350;2023-02-03T08:02:45;10.00;99.90
41668;DHT22;27356;50.920;5.350;2023-02-03T08:05:14;9.90;99.90
41668;DHT22;27356;50.920;5.350;2023-02-03T08:07:42;9.80;99.90
41668;DHT22;27356;50.920;5.350;2023-02-03T08:10:09;10.00;99.90
41668;DHT22;27356;50.920;5.350;2023-02-03T08:12:36;10.10;99.90
41668;DHT22;27356;50.920;5.350;2023-02-03T08:15:02;10.10;99.90
41668;DHT22;27356;50.920;5.350;2023-02-03T08:17:29;10.10;99.90
41668;DHT22;27356;50.920;5.350;2023-02-03T08:19:54;10.20;99.90
41668;DHT22;27356;50.920;5.350;2023-02-03T08:22:20;10.00;99.90
41668;DHT22;27356;50.920;5.350;2023-02-03T08:24:46;10.00;99.90
41668;DHT22;27356;50.920;5.350;2023-02-03T08:27:20;9.90;99.90
41668;DHT22;27356;50.920;5.350;2023-02-03T08:29:46;10.00;99.90
41668;DHT22;27356;50.920;5.350;2023-02-03T08:32:14;10.00;99.90
41668;DHT22;27356;50.920;5.350;2023-02-03T08:34:40;10.10;99.90
41668;DHT22;27356;50.920;5.350;2023-02-03T08:37:06;10.10;99.90
41668;DHT22;27356;50.920;5.350;2023-02-03T08:39:32;10.10;99.90
41668;DHT22;27356;50.920;5.350;2023-02-03T08:41:59;10.00;99.90
41668;DHT22;27356;50.920;5.350;2023-02-03T08:44:25;10.00;99.90
41668;DHT22;27356;50.920;5.350;2023-02-03T08:46:51;10.20;99.90
41668;DHT22;27356;50.920;5.350;2023-02-03T08:49:18;10.20;99.90
41668;DHT22;27356;50.920;5.350;2023-02-03T08:51:45;10.10;99.90
41668;DHT22;27356;50.920;5.350;2023-02-03T08:54:11;10.10;99.90
41668;DHT22;27356;50.920;5.350;2023-02-03T08:56:37;10.20;99.90
41668;DHT22;27356;50.920;5.350;2023-02-03T08:59:03;10.30;99.90
41668;DHT22;27356;50.920;5.350;2023-02-03T09:01:29;10.30;99.90
41668;DHT22;27356;50.920;5.350;2023-02-03T09:03:55;10.40;99.90
41668;DHT22;27356;50.920;5.350;2023-02-03T09:06:21;10.50;99.90
41668;DHT22;27356;50.920;5.350;2023-02-03T09:08:47;10.30;99.90
41668;DHT22;27356;50.920;5.350;2023-02-03T09:11:15;10.30;99.90
41668;DHT22;27356;50.920;5.350;2023-02-03T09:13:42;10.30;99.90
41668;DHT22;27356;50.920;5.350;2023-02-03T09:16:12;10.30;99.90
41668;DHT22;27356;50.920;5.350;2023-02-03T09:18:38;10.40;99.90
41668;DHT22;27356;50.920;5.350;2023-02-03T09:21:07;10.30;99.90
41668;DHT22;27356;50.920;5.350;2023-02-03T09:23:36;10.30;99.90
41668;DHT22;27356;50.920;5.350;2023-02-03T09:26:13;10.30;99.90
41668;DHT22;27356;50.920;5.350;2023-02-03T09:28:40;10.40;99.90
41668;DHT22;27356;50.920;5.350;2023-02-03T09:31:13;10.20;99.90
41668;DHT22;27356;50.920;5.350;2023-02-03T09:33:40;10.30;99.90
41668;DHT22;27356;50.920;5.350;2023-02-03T09:36:06;10.40;99.90
41668;DHT22;27356;50.920;5.350;2023-02-03T09:38:33;10.30;99.90
41668;DHT22;27356;50.920;5.350;2023-02-03T09:43:59;10.30;99.90
41668;DHT22;27356;50.920;5.350;2023-02-03T09:46:30;10.10;99.90
41668;DHT22;27356;50.920;5.350;2023-02-03T09:49:36;10.20;99.90
41668;DHT22;27356;50.920;5.350;2023-02-03T09:52:03;10.20;99.90
41668;DHT22;27356;50.920;5.350;2023-02-03T09:57:31;10.00;99.90
41668;DHT22;27356;50.920;5.350;2023-02-03T10:00:12;10.10;99.90
41668;DHT22;27356;50.920;5.350;2023-02-03T10:02:59;10.20;99.90
41668;DHT22;27356;50.920;5.350;2023-02-03T10:14:39;10.40;99.90
41668;DHT22;27356;50.920;5.350;2023-02-03T10:20:10;10.50;99.90
41668;DHT22;27356;50.920;5.350;2023-02-03T10:23:13;10.40;99.90
41668;DHT22;27356;50.920;5.350;2023-02-03T10:25:44;10.40;99.90
41668;DHT22;27356;50.920;5.350;2023-02-03T10:28:33;10.40;99.90
41668;DHT22;27356;50.920;5.350;2023-02-03T10:31:29;10.60;99.90
41668;DHT22;27356;50.920;5.350;2023-02-03T10:34:10;10.60;99.90
41668;DHT22;27356;50.920;5.350;2023-02-03T10:36:58;10.60;99.90
41668;DHT22;27356;50.920;5.350;2023-02-03T10:39:54;10.50;99.90
41668;DHT22;27356;50.920;5.350;2023-02-03T10:42:21;10.60;99.90
41668;DHT22;27356;50.920;5.350;2023-02-03T10:44:54;10.60;99.90
41668;DHT22;27356;50.920;5.350;2023-02-03T10:52:31;10.70;99.90
41668;DHT22;27356;50.920;5.350;2023-02-03T10:55:29;10.70;99.90
41668;DHT22;27356;50.920;5.350;2023-02-03T11:01:16;10.70;99.90
41668;DHT22;27356;50.920;5.350;2023-02-03T11:03:57;10.60;99.90
41668;DHT22;27356;50.920;5.350;2023-02-03T11:06:25;10.60;99.90
41668;DHT22;27356;50.920;5.350;2023-02-03T11:08:54;10.50;99.90
41668;DHT22;27356;50.920;5.350;2023-02-03T11:11:29;10.40;99.90
41668;DHT22;27356;50.920;5.350;2023-02-03T11:16:30;10.40;99.90
41668;DHT22;27356;50.920;5.350;2023-02-03T11:19:19;10.50;99.90
41668;DHT22;27356;50.920;5.350;2023-02-03T11:21:53;10.50;99.90
41668;DHT22;27356;50.920;5.350;2023-02-03T11:24:40;10.50;99.90
41668;DHT22;27356;50.920;5.350;2023-02-03T11:27:29;10.70;99.90
41668;DHT22;27356;50.920;5.350;2023-02-03T11:30:19;10.60;99.90
41668;DHT22;27356;50.920;5.350;2023-02-03T11:32:46;10.70;99.90
41668;DHT22;27356;50.920;5.350;2023-02-03T11:35:37;10.90;99.90
41668;DHT22;27356;50.920;5.350;2023-02-03T11:47:37;11.10;99.90
41668;DHT22;27356;50.920;5.350;2023-02-03T11:50:09;11.20;99.90
41668;DHT22;27356;50.920;5.350;2023-02-03T11:52:49;11.20;99.90
41668;DHT22;27356;50.920;5.350;2023-02-03T11:58:23;11.10;99.90
41668;DHT22;27356;50.920;5.350;2023-02-03T12:03:44;10.90;99.90
41668;DHT22;27356;50.920;5.350;2023-02-03T12:06:27;11.00;99.90
41668;DHT22;27356;50.920;5.350;2023-02-03T12:09:24;11.00;99.90
41668;DHT22;27356;50.920;5.350;2023-02-03T12:15:19;10.90;99.90
41668;DHT22;27356;50.920;5.350;2023-02-03T12:20:40;10.90;99.90
41668;DHT22;27356;50.920;5.350;2023-02-03T12:26:19;10.80;99.90
41668;DHT22;27356;50.920;5.350;2023-02-03T12:29:08;10.90;99.90
41668;DHT22;27356;50.920;5.350;2023-02-03T12:31:43;11.00;99.90
41668;DHT22;27356;50.920;5.350;2023-02-03T12:34:24;10.80;99.90
41668;DHT22;27356;50.920;5.350;2023-02-03T12:37:01;10.90;99.90
41668;DHT22;27356;50.920;5.350;2023-02-03T12:45:07;11.00;99.90
41668;DHT22;27356;50.920;5.350;2023-02-03T12:50:19;11.00;99.90
41668;DHT22;27356;50.920;5.350;2023-02-03T12:56:00;10.90;99.90
41668;DHT22;27356;50.920;5.350;2023-02-03T12:58:51;11.10;99.90
41668;DHT22;27356;50.920;5.350;2023-02-03T13:01:23;11.10;99.90
41668;DHT22;27356;50.920;5.350;2023-02-03T13:07:27;11.00;99.90
41668;DHT22;27356;50.920;5.350;2023-02-03T13:10:21;11.10;99.90
41668;DHT22;27356;50.920;5.350;2023-02-03T13:12:52;11.20;99.90
41668;DHT22;27356;50.920;5.350;2023-02-03T13:15:42;11.10;99.90
41668;DHT22;27356;50.920;5.350;2023-02-03T13:18:30;11.10;99.90
41668;DHT22;27356;50.920;5.350;2023-02-03T13:20:57;11.00;99.90
41668;DHT22;27356;50.920;5.350;2023-02-03T13:23:24;10.90;99.90
41668;DHT22;27356;50.920;5.350;2023-02-03T13:29:30;10.80;99.90
41668;DHT22;27356;50.920;5.350;2023-02-03T13:31:54;10.90;99.90
41668;DHT22;27356;50.920;5.350;2023-02-03T13:38:00;10.80;99.90
41668;DHT22;27356;50.920;5.350;2023-02-03T13:43:45;10.90;99.90
41668;DHT22;27356;50.920;5.350;2023-02-03T13:46:31;10.80;99.90
41668;DHT22;27356;50.920;5.350;2023-02-03T13:49:00;10.90;99.90
41668;DHT22;27356;50.920;5.350;2023-02-03T13:51:35;10.90;99.90
41668;DHT22;27356;50.920;5.350;2023-02-03T13:54:05;10.90;99.90
41668;DHT22;27356;50.920;5.350;2023-02-03T13:57:05;10.80;99.90
41668;DHT22;27356;50.920;5.350;2023-02-03T13:59:46;10.80;99.90
41668;DHT22;27356;50.920;5.350;2023-02-03T14:04:54;11.10;99.90
41668;DHT22;27356;50.920;5.350;2023-02-03T14:07:34;11.20;99.90
41668;DHT22;27356;50.920;5.350;2023-02-03T14:10:22;11.20;99.90
41668;DHT22;27356;50.920;5.350;2023-02-03T14:20:41;11.10;99.90
41668;DHT22;27356;50.920;5.350;2023-02-03T14:23:18;11.10;99.90
41668;DHT22;27356;50.920;5.350;2023-02-03T14:25:50;11.10;99.90
41668;DHT22;27356;50.920;5.350;2023-02-03T14:28:19;11.10;99.90
41668;DHT22;27356;50.920;5.350;2023-02-03T14:31:16;11.10;99.90
41668;DHT22;27356;50.920;5.350;2023-02-03T14:39:39;11.40;99.90
41668;DHT22;27356;50.920;5.350;2023-02-03T14:42:19;11.30;99.90
41668;DHT22;27356;50.920;5.350;2023-02-03T14:45:19;11.20;99.90
41668;DHT22;27356;50.920;5.350;2023-02-03T14:56:59;11.20;99.90
41668;DHT22;27356;50.920;5.350;2023-02-03T15:02:30;11.20;99.90
41668;DHT22;27356;50.920;5.350;2023-02-03T15:07:47;11.30;99.90
41668;DHT22;27356;50.920;5.350;2023-02-03T15:10:20;11.20;99.90
41668;DHT22;27356;50.920;5.350;2023-02-03T15:12:49;11.20;99.90
41668;DHT22;27356;50.920;5.350;2023-02-03T15:15:27;11.20;99.90
41668;DHT22;27356;50.920;5.350;2023-02-03T15:17:55;11.30;99.90
41668;DHT22;27356;50.920;5.350;2023-02-03T15:22:52;11.30;99.90
41668;DHT22;27356;50.920;5.350;2023-02-03T15:25:21;11.30;99.90
41668;DHT22;27356;50.920;5.350;2023-02-03T15:27:50;11.20;99.90
41668;DHT22;27356;50.920;5.350;2023-02-03T15:30:25;11.30;99.90
41668;DHT22;27356;50.920;5.350;2023-02-03T15:33:16;11.40;99.90
41668;DHT22;27356;50.920;5.350;2023-02-03T15:35:46;11.40;99.90
41668;DHT22;27356;50.920;5.350;2023-02-03T15:38:16;11.40;99.90
41668;DHT22;27356;50.920;5.350;2023-02-03T15:40:48;11.40;99.90
41668;DHT22;27356;50.920;5.350;2023-02-03T15:43:20;11.50;99.90
41668;DHT22;27356;50.920;5.350;2023-02-03T15:48:34;11.50;99.90
41668;DHT22;27356;50.920;5.350;2023-02-03T15:58:51;11.40;99.90
41668;DHT22;27356;50.920;5.350;2023-02-03T16:01:21;11.40;99.90
41668;DHT22;27356;50.920;5.350;2023-02-03T16:03:50;11.40;99.90
41668;DHT22;27356;50.920;5.350;2023-02-03T16:06:43;11.50;99.90
41668;DHT22;27356;50.920;5.350;2023-02-03T16:09:38;11.50;99.90
41668;DHT22;27356;50.920;5.350;2023-02-03T16:23:22;11.40;99.90
41668;DHT22;27356;50.920;5.350;2023-02-03T16:28:36;11.20;99.90
41668;DHT22;27356;50.920;5.350;2023-02-03T16:31:21;11.30;99.90
41668;DHT22;27356;50.920;5.350;2023-02-03T16:34:14;11.30;99.90
41668;DHT22;27356;50.920;5.350;2023-02-03T16:37:00;11.20;99.90
41668;DHT22;27356;50.920;5.350;2023-02-03T16:39:44;11.10;99.90
41668;DHT22;27356;50.920;5.350;2023-02-03T16:42:37;11.10;99.90
41668;DHT22;27356;50.920;5.350;2023-02-03T16:45:22;11.20;99.90
41668;DHT22;27356;50.920;5.350;2023-02-03T16:48:09;11.10;99.90
41668;DHT22;27356;50.920;5.350;2023-02-03T16:50:53;11.00;99.90
41668;DHT22;27356;50.920;5.350;2023-02-03T16:53:31;11.00;99.90
41668;DHT22;27356;50.920;5.350;2023-02-03T16:56:01;11.00;99.90
41668;DHT22;27356;50.920;5.350;2023-02-03T16:58:29;11.00;99.90
41668;DHT22;27356;50.920;5.350;2023-02-03T17:00:57;11.00;99.90
41668;DHT22;27356;50.920;5.350;2023-02-03T17:03:25;11.00;99.90
41668;DHT22;27356;50.920;5.350;2023-02-03T17:05:51;11.00;99.90
41668;DHT22;27356;50.920;5.350;2023-02-03T17:08:20;11.10;99.90
41668;DHT22;27356;50.920;5.350;2023-02-03T17:10:46;11.10;99.90
41668;DHT22;27356;50.920;5.350;2023-02-03T17:13:20;11.00;99.90
41668;DHT22;27356;50.920;5.350;2023-02-03T17:15:47;11.00;99.90
41668;DHT22;27356;50.920;5.350;2023-02-03T17:18:14;10.90;99.90
41668;DHT22;27356;50.920;5.350;2023-02-03T17:20:44;10.90;99.90
41668;DHT22;27356;50.920;5.350;2023-02-03T17:23:10;10.90;99.90
41668;DHT22;27356;50.920;5.350;2023-02-03T17:25:48;10.80;99.90
41668;DHT22;27356;50.920;5.350;2023-02-03T17:28:14;10.80;99.90
41668;DHT22;27356;50.920;5.350;2023-02-03T17:30:40;10.90;99.90
41668;DHT22;27356;50.920;5.350;2023-02-03T17:33:07;10.90;99.90
41668;DHT22;27356;50.920;5.350;2023-02-03T17:35:41;11.00;99.90
41668;DHT22;27356;50.920;5.350;2023-02-03T17:38:08;11.10;99.90
41668;DHT22;27356;50.920;5.350;2023-02-03T17:40:38;11.00;99.90
41668;DHT22;27356;50.920;5.350;2023-02-03T17:43:04;11.00;99.90
41668;DHT22;27356;50.920;5.350;2023-02-03T17:45:30;11.00;99.90
41668;DHT22;27356;50.920;5.350;2023-02-03T17:47:56;11.00;99.90
41668;DHT22;27356;50.920;5.350;2023-02-03T17:50:24;11.00;99.90
41668;DHT22;27356;50.920;5.350;2023-02-03T17:52:50;11.00;99.90
41668;DHT22;27356;50.920;5.350;2023-02-03T17:55:16;11.20;99.90
41668;DHT22;27356;50.920;5.350;2023-02-03T17:57:41;11.10;99.90
41668;DHT22;27356;50.920;5.350;2023-02-03T18:00:08;10.90;99.90
41668;DHT22;27356;50.920;5.350;2023-02-03T18:02:35;11.00;99.90
41668;DHT22;27356;50.920;5.350;2023-02-03T18:05:00;11.10;99.90
41668;DHT22;27356;50.920;5.350;2023-02-03T18:07:27;11.10;99.90
41668;DHT22;27356;50.920;5.350;2023-02-03T18:09:53;10.90;99.90
41668;DHT22;27356;50.920;5.350;2023-02-03T18:12:18;10.90;99.90
41668;DHT22;27356;50.920;5.350;2023-02-03T18:14:44;10.90;99.90
41668;DHT22;27356;50.920;5.350;2023-02-03T18:17:10;10.80;99.90
41668;DHT22;27356;50.920;5.350;2023-02-03T18:19:36;10.80;99.90
41668;DHT22;27356;50.920;5.350;2023-02-03T18:22:03;10.90;99.90
41668;DHT22;27356;50.920;5.350;2023-02-03T18:24:28;10.90;99.90
41668;DHT22;27356;50.920;5.350;2023-02-03T18:26:55;10.90;99.90
41668;DHT22;27356;50.920;5.350;2023-02-03T18:29:22;11.00;99.90
41668;DHT22;27356;50.920;5.350;2023-02-03T18:31:48;10.80;99.90
41668;DHT22;27356;50.920;5.350;2023-02-03T18:34:15;10.80;99.90
41668;DHT22;27356;50.920;5.350;2023-02-03T18:36:41;10.80;99.90
41668;DHT22;27356;50.920;5.350;2023-02-03T18:39:07;10.90;99.90
41668;DHT22;27356;50.920;5.350;2023-02-03T18:41:33;10.90;99.90
41668;DHT22;27356;50.920;5.350;2023-02-03T18:44:00;10.80;99.90
41668;DHT22;27356;50.920;5.350;2023-02-03T18:46:28;10.80;99.90
41668;DHT22;27356;50.920;5.350;2023-02-03T18:48:54;10.80;99.90
41668;DHT22;27356;50.920;5.350;2023-02-03T18:51:21;10.70;99.90
41668;DHT22;27356;50.920;5.350;2023-02-03T18:53:48;10.70;99.90
41668;DHT22;27356;50.920;5.350;2023-02-03T18:56:19;10.80;99.90
41668;DHT22;27356;50.920;5.350;2023-02-03T18:58:45;10.80;99.90
41668;DHT22;27356;50.920;5.350;2023-02-03T19:01:22;10.70;99.90
41668;DHT22;27356;50.920;5.350;2023-02-03T19:03:50;10.60;99.90
41668;DHT22;27356;50.920;5.350;2023-02-03T19:06:17;10.50;99.90
41668;DHT22;27356;50.920;5.350;2023-02-03T19:08:43;10.60;99.90
41668;DHT22;27356;50.920;5.350;2023-02-03T19:11:21;10.50;99.90
41668;DHT22;27356;50.920;5.350;2023-02-03T19:13:54;10.50;99.90
41668;DHT22;27356;50.920;5.350;2023-02-03T19:16:21;10.40;99.90
41668;DHT22;27356;50.920;5.350;2023-02-03T19:18:47;10.40;99.90
41668;DHT22;27356;50.920;5.350;2023-02-03T19:21:12;10.40;99.90
41668;DHT22;27356;50.920;5.350;2023-02-03T19:23:39;10.30;99.90
41668;DHT22;27356;50.920;5.350;2023-02-03T19:26:05;10.30;99.90
41668;DHT22;27356;50.920;5.350;2023-02-03T19:28:31;10.30;99.90
41668;DHT22;27356;50.920;5.350;2023-02-03T19:31:10;10.20;99.90
41668;DHT22;27356;50.920;5.350;2023-02-03T19:33:37;10.30;99.90
41668;DHT22;27356;50.920;5.350;2023-02-03T19:36:04;10.30;99.90
41668;DHT22;27356;50.920;5.350;2023-02-03T19:38:34;10.30;99.90
41668;DHT22;27356;50.920;5.350;2023-02-03T19:41:24;10.40;99.90
41668;DHT22;27356;50.920;5.350;2023-02-03T19:44:00;10.30;99.90
41668;DHT22;27356;50.920;5.350;2023-02-03T19:46:34;10.30;99.90
41668;DHT22;27356;50.920;5.350;2023-02-03T19:49:06;10.20;99.90
41668;DHT22;27356;50.920;5.350;2023-02-03T19:51:36;10.20;99.90
41668;DHT22;27356;50.920;5.350;2023-02-03T19:54:02;10.20;99.90
41668;DHT22;27356;50.920;5.350;2023-02-03T19:56:28;10.20;99.90
41668;DHT22;27356;50.920;5.350;2023-02-03T19:58:54;10.30;99.90
41668;DHT22;27356;50.920;5.350;2023-02-03T20:01:20;10.30;99.90
41668;DHT22;27356;50.920;5.350;2023-02-03T20:03:47;10.30;99.90
41668;DHT22;27356;50.920;5.350;2023-02-03T20:06:16;10.30;99.90
41668;DHT22;27356;50.920;5.350;2023-02-03T20:08:43;10.30;99.90
41668;DHT22;27356;50.920;5.350;2023-02-03T20:24:16;10.10;99.90
41668;DHT22;27356;50.920;5.350;2023-02-03T20:26:47;10.00;99.90
41668;DHT22;27356;50.920;5.350;2023-02-03T20:37:03;10.20;99.90
41668;DHT22;27356;50.920;5.350;2023-02-03T20:39:34;10.20;99.90
41668;DHT22;27356;50.920;5.350;2023-02-03T20:42:36;10.20;99.90
41668;DHT22;27356;50.920;5.350;2023-02-03T20:50:45;10.10;99.90
41668;DHT22;27356;50.920;5.350;2023-02-03T21:37:58;10.20;99.90
41668;DHT22;27356;50.920;5.350;2023-02-03T22:09:04;10.40;99.90
41668;DHT22;27356;50.920;5.350;2023-02-03T22:26:58;10.50;99.90
41668;DHT22;27356;50.920;5.350;2023-02-03T22:29:24;10.40;99.90
41668;DHT22;27356;50.920;5.350;2023-02-03T22:31:52;10.50;99.90
41668;DHT22;27356;50.920;5.350;2023-02-03T22:34:20;10.40;99.90
41668;DHT22;27356;50.920;5.350;2023-02-03T22:36:47;10.30;99.90
41668;DHT22;27356;50.920;5.350;2023-02-03T22:39:13;10.40;99.90
41668;DHT22;27356;50.920;5.350;2023-02-03T22:41:38;10.30;99.90
41668;DHT22;27356;50.920;5.350;2023-02-03T22:44:04;10.30;99.90
41668;DHT22;27356;50.920;5.350;2023-02-03T22:46:30;10.40;99.90
41668;DHT22;27356;50.920;5.350;2023-02-03T22:48:55;10.50;99.90
41668;DHT22;27356;50.920;5.350;2023-02-03T22:51:21;10.50;99.90
41668;DHT22;27356;50.920;5.350;2023-02-03T22:53:47;10.60;99.90
41668;DHT22;27356;50.920;5.350;2023-02-03T22:56:13;10.60;99.90
41668;DHT22;27356;50.920;5.350;2023-02-03T22:58:39;10.60;99.90
41668;DHT22;27356;50.920;5.350;2023-02-03T23:01:05;10.60;99.90
41668;DHT22;27356;50.920;5.350;2023-02-03T23:03:31;10.60;99.90
41668;DHT22;27356;50.920;5.350;2023-02-03T23:05:57;10.50;99.90
41668;DHT22;27356;50.920;5.350;2023-02-03T23:08:23;10.60;99.90
41668;DHT22;27356;50.920;5.350;2023-02-03T23:10:51;10.60;99.90
41668;DHT22;27356;50.920;5.350;2023-02-03T23:13:18;10.50;99.90
41668;DHT22;27356;50.920;5.350;2023-02-03T23:32:06;9.10;99.90
41668;DHT22;27356;50.920;5.350;2023-02-03T23:34:34;9.00;99.90
41668;DHT22;27356;50.920;5.350;2023-02-03T23:37:18;9.00;99.90
41668;DHT22;27356;50.920;5.350;2023-02-03T23:39:44;8.90;99.90
41668;DHT22;27356;50.920;5.350;2023-02-03T23:42:10;8.80;99.90
41668;DHT22;27356;50.920;5.350;2023-02-03T23:44:36;8.70;99.90
41668;DHT22;27356;50.920;5.350;2023-02-03T23:47:02;8.80;99.90
41668;DHT22;27356;50.920;5.350;2023-02-03T23:49:28;8.70;99.90
41668;DHT22;27356;50.920;5.350;2023-02-03T23:51:56;8.70;99.90
41668;DHT22;27356;50.920;5.350;2023-02-03T23:54:22;8.70;99.90
41668;DHT22;27356;50.920;5.350;2023-02-03T23:56:48;8.70;99.90